sensor_id;sensor_type;location;lat;lon;timestamp;P1;durP1;ratioP1;P2;durP2;ratioP2
17024;SDS011;8629;42.496;25.620;2022-10-26T00:02:01;6.20;;;3.03;;
17024;SDS011;8629;42.496;25.620;2022-10-26T00:04:28;4.27;;;3.63;;
17024;SDS011;8629;42.496;25.620;2022-10-26T00:06:55;12.27;;;3.73;;
17024;SDS011;8629;42.496;25.620;2022-10-26T00:09:21;6.17;;;3.83;;
17024;SDS011;8629;42.496;25.620;2022-10-26T00:11:48;5.97;;;4.97;;
17024;SDS011;8629;42.496;25.620;2022-10-26T00:14:15;11.63;;;3.97;;
17024;SDS011;8629;42.496;25.620;2022-10-26T00:16:43;4.20;;;2.60;;
17024;SDS011;8629;42.496;25.620;2022-10-26T00:19:10;4.87;;;3.30;;
17024;SDS011;8629;42.496;25.620;2022-10-26T00:21:36;13.67;;;3.53;;
17024;SDS011;8629;42.496;25.620;2022-10-26T00:24:03;11.07;;;3.93;;
17024;SDS011;8629;42.496;25.620;2022-10-26T00:26:30;7.17;;;3.97;;
17024;SDS011;8629;42.496;25.620;2022-10-26T00:28:57;4.90;;;3.87;;
17024;SDS011;8629;42.496;25.620;2022-10-26T00:31:24;4.07;;;2.77;;
17024;SDS011;8629;42.496;25.620;2022-10-26T00:33:52;5.60;;;3.53;;
17024;SDS011;8629;42.496;25.620;2022-10-26T00:36:19;9.80;;;3.57;;
17024;SDS011;8629;42.496;25.620;2022-10-26T00:38:47;5.33;;;3.90;;
17024;SDS011;8629;42.496;25.620;2022-10-26T00:41:14;4.67;;;3.57;;
17024;SDS011;8629;42.496;25.620;2022-10-26T00:43:41;6.97;;;3.60;;
17024;SDS011;8629;42.496;25.620;2022-10-26T00:46:10;8.03;;;3.30;;
17024;SDS011;8629;42.496;25.620;2022-10-26T00:48:38;8.77;;;3.93;;
17024;SDS011;8629;42.496;25.620;2022-10-26T00:51:09;7.17;;;3.53;;
17024;SDS011;8629;42.496;25.620;2022-10-26T00:53:38;7.13;;;3.43;;
17024;SDS011;8629;42.496;25.620;2022-10-26T00:56:06;5.50;;;3.00;;
17024;SDS011;8629;42.496;25.620;2022-10-26T00:58:33;8.47;;;3.33;;
17024;SDS011;8629;42.496;25.620;2022-10-26T01:01:00;5.40;;;3.37;;
17024;SDS011;8629;42.496;25.620;2022-10-26T01:03:27;9.23;;;4.53;;
17024;SDS011;8629;42.496;25.620;2022-10-26T01:05:55;8.73;;;3.93;;
17024;SDS011;8629;42.496;25.620;2022-10-26T01:08:24;6.70;;;3.00;;
17024;SDS011;8629;42.496;25.620;2022-10-26T01:10:52;4.87;;;3.23;;
17024;SDS011;8629;42.496;25.620;2022-10-26T01:13:20;11.20;;;3.47;;
17024;SDS011;8629;42.496;25.620;2022-10-26T01:15:50;4.50;;;3.07;;
17024;SDS011;8629;42.496;25.620;2022-10-26T01:18:25;7.47;;;3.50;;
17024;SDS011;8629;42.496;25.620;2022-10-26T01:21:06;6.10;;;3.73;;
17024;SDS011;8629;42.496;25.620;2022-10-26T01:23:40;8.37;;;4.00;;
17024;SDS011;8629;42.496;25.620;2022-10-26T01:26:20;5.10;;;3.23;;
17024;SDS011;8629;42.496;25.620;2022-10-26T01:29:02;7.30;;;3.13;;
17024;SDS011;8629;42.496;25.620;2022-10-26T01:31:41;6.47;;;3.53;;
17024;SDS011;8629;42.496;25.620;2022-10-26T01:34:10;9.83;;;3.40;;
17024;SDS011;8629;42.496;25.620;2022-10-26T01:36:39;4.10;;;2.53;;
17024;SDS011;8629;42.496;25.620;2022-10-26T01:39:09;7.13;;;3.50;;
17024;SDS011;8629;42.496;25.620;2022-10-26T01:41:42;8.97;;;3.67;;
17024;SDS011;8629;42.496;25.620;2022-10-26T01:44:12;6.93;;;3.80;;
17024;SDS011;8629;42.496;25.620;2022-10-26T01:46:43;9.00;;;4.40;;
17024;SDS011;8629;42.496;25.620;2022-10-26T01:49:11;7.03;;;3.37;;
17024;SDS011;8629;42.496;25.620;2022-10-26T01:51:39;4.73;;;3.30;;
17024;SDS011;8629;42.496;25.620;2022-10-26T01:54:08;7.07;;;3.20;;
17024;SDS011;8629;42.496;25.620;2022-10-26T01:56:35;4.57;;;3.13;;
17024;SDS011;8629;42.496;25.620;2022-10-26T01:59:15;4.97;;;3.27;;
17024;SDS011;8629;42.496;25.620;2022-10-26T02:08:01;10.73;;;3.57;;
17024;SDS011;8629;42.496;25.620;2022-10-26T02:10:37;8.43;;;3.60;;
17024;SDS011;8629;42.496;25.620;2022-10-26T02:13:13;6.50;;;3.57;;
17024;SDS011;8629;42.496;25.620;2022-10-26T02:15:45;6.83;;;3.10;;
17024;SDS011;8629;42.496;25.620;2022-10-26T02:18:17;9.63;;;4.10;;
17024;SDS011;8629;42.496;25.620;2022-10-26T02:20:49;11.03;;;3.70;;
17024;SDS011;8629;42.496;25.620;2022-10-26T02:23:19;8.70;;;3.83;;
17024;SDS011;8629;42.496;25.620;2022-10-26T02:25:48;12.33;;;3.67;;
17024;SDS011;8629;42.496;25.620;2022-10-26T02:28:17;9.43;;;3.87;;
17024;SDS011;8629;42.496;25.620;2022-10-26T02:30:46;3.37;;;2.97;;
17024;SDS011;8629;42.496;25.620;2022-10-26T02:33:14;6.30;;;3.43;;
17024;SDS011;8629;42.496;25.620;2022-10-26T02:35:42;4.57;;;3.03;;
17024;SDS011;8629;42.496;25.620;2022-10-26T02:38:12;6.83;;;3.17;;
17024;SDS011;8629;42.496;25.620;2022-10-26T02:40:39;7.27;;;2.97;;
17024;SDS011;8629;42.496;25.620;2022-10-26T02:43:08;4.07;;;2.40;;
17024;SDS011;8629;42.496;25.620;2022-10-26T02:45:39;8.50;;;3.63;;
17024;SDS011;8629;42.496;25.620;2022-10-26T02:48:09;6.47;;;3.23;;
17024;SDS011;8629;42.496;25.620;2022-10-26T02:50:37;5.53;;;3.47;;
17024;SDS011;8629;42.496;25.620;2022-10-26T02:53:09;8.07;;;3.07;;
17024;SDS011;8629;42.496;25.620;2022-10-26T02:55:42;8.00;;;2.70;;
17024;SDS011;8629;42.496;25.620;2022-10-26T02:58:13;4.10;;;3.33;;
17024;SDS011;8629;42.496;25.620;2022-10-26T03:00:42;3.70;;;2.70;;
17024;SDS011;8629;42.496;25.620;2022-10-26T03:03:10;6.83;;;2.87;;
17024;SDS011;8629;42.496;25.620;2022-10-26T03:05:39;7.23;;;3.50;;
17024;SDS011;8629;42.496;25.620;2022-10-26T03:08:07;3.23;;;2.77;;
17024;SDS011;8629;42.496;25.620;2022-10-26T03:10:35;7.43;;;3.13;;
17024;SDS011;8629;42.496;25.620;2022-10-26T03:13:06;5.33;;;3.03;;
17024;SDS011;8629;42.496;25.620;2022-10-26T03:15:32;5.83;;;2.90;;
17024;SDS011;8629;42.496;25.620;2022-10-26T03:17:59;6.30;;;2.60;;
17024;SDS011;8629;42.496;25.620;2022-10-26T03:20:26;2.80;;;2.53;;
17024;SDS011;8629;42.496;25.620;2022-10-26T03:22:53;3.63;;;2.30;;
17024;SDS011;8629;42.496;25.620;2022-10-26T03:25:21;5.30;;;2.20;;
17024;SDS011;8629;42.496;25.620;2022-10-26T03:27:56;6.63;;;2.53;;
17024;SDS011;8629;42.496;25.620;2022-10-26T03:30:23;6.37;;;2.37;;
17024;SDS011;8629;42.496;25.620;2022-10-26T03:32:50;11.03;;;2.47;;
17024;SDS011;8629;42.496;25.620;2022-10-26T03:35:16;5.07;;;3.07;;
17024;SDS011;8629;42.496;25.620;2022-10-26T03:37:43;4.47;;;2.30;;
17024;SDS011;8629;42.496;25.620;2022-10-26T03:40:10;3.83;;;1.83;;
17024;SDS011;8629;42.496;25.620;2022-10-26T03:42:37;1.97;;;1.83;;
17024;SDS011;8629;42.496;25.620;2022-10-26T03:45:06;4.80;;;2.00;;
17024;SDS011;8629;42.496;25.620;2022-10-26T03:47:38;2.07;;;1.87;;
17024;SDS011;8629;42.496;25.620;2022-10-26T03:50:08;3.97;;;1.70;;
17024;SDS011;8629;42.496;25.620;2022-10-26T03:52:35;2.60;;;1.40;;
17024;SDS011;8629;42.496;25.620;2022-10-26T03:55:01;2.10;;;1.30;;
17024;SDS011;8629;42.496;25.620;2022-10-26T03:57:28;1.43;;;1.20;;
17024;SDS011;8629;42.496;25.620;2022-10-26T03:59:55;1.77;;;1.10;;
17024;SDS011;8629;42.496;25.620;2022-10-26T04:02:23;1.10;;;1.00;;
17024;SDS011;8629;42.496;25.620;2022-10-26T04:04:50;1.17;;;1.00;;
17024;SDS011;8629;42.496;25.620;2022-10-26T04:07:17;1.60;;;0.77;;
17024;SDS011;8629;42.496;25.620;2022-10-26T04:09:45;0.90;;;0.83;;
17024;SDS011;8629;42.496;25.620;2022-10-26T04:12:12;0.93;;;0.93;;
17024;SDS011;8629;42.496;25.620;2022-10-26T04:14:39;1.27;;;1.17;;
17024;SDS011;8629;42.496;25.620;2022-10-26T04:17:06;1.67;;;1.30;;
17024;SDS011;8629;42.496;25.620;2022-10-26T04:19:34;0.90;;;0.90;;
17024;SDS011;8629;42.496;25.620;2022-10-26T04:22:00;1.30;;;1.20;;
17024;SDS011;8629;42.496;25.620;2022-10-26T04:24:27;1.40;;;1.30;;
17024;SDS011;8629;42.496;25.620;2022-10-26T04:26:54;0.90;;;0.90;;
17024;SDS011;8629;42.496;25.620;2022-10-26T04:29:21;2.33;;;1.60;;
17024;SDS011;8629;42.496;25.620;2022-10-26T04:31:47;2.90;;;1.40;;
17024;SDS011;8629;42.496;25.620;2022-10-26T04:34:14;4.00;;;1.10;;
17024;SDS011;8629;42.496;25.620;2022-10-26T04:36:42;4.03;;;1.20;;
17024;SDS011;8629;42.496;25.620;2022-10-26T04:39:09;1.53;;;1.47;;
17024;SDS011;8629;42.496;25.620;2022-10-26T04:41:36;7.50;;;1.67;;
17024;SDS011;8629;42.496;25.620;2022-10-26T04:44:02;1.67;;;1.10;;
17024;SDS011;8629;42.496;25.620;2022-10-26T04:46:29;1.63;;;1.53;;
17024;SDS011;8629;42.496;25.620;2022-10-26T04:48:56;1.60;;;1.50;;
17024;SDS011;8629;42.496;25.620;2022-10-26T04:51:23;2.17;;;1.10;;
17024;SDS011;8629;42.496;25.620;2022-10-26T04:53:53;1.30;;;1.30;;
17024;SDS011;8629;42.496;25.620;2022-10-26T04:56:20;1.60;;;1.33;;
17024;SDS011;8629;42.496;25.620;2022-10-26T04:58:46;2.23;;;2.03;;
17024;SDS011;8629;42.496;25.620;2022-10-26T05:01:13;1.77;;;1.40;;
17024;SDS011;8629;42.496;25.620;2022-10-26T05:03:40;3.60;;;1.30;;
17024;SDS011;8629;42.496;25.620;2022-10-26T05:06:07;1.67;;;1.37;;
17024;SDS011;8629;42.496;25.620;2022-10-26T05:08:34;1.40;;;1.30;;
17024;SDS011;8629;42.496;25.620;2022-10-26T05:11:02;1.43;;;0.93;;
17024;SDS011;8629;42.496;25.620;2022-10-26T05:13:28;4.00;;;1.30;;
17024;SDS011;8629;42.496;25.620;2022-10-26T05:15:55;1.07;;;0.90;;
17024;SDS011;8629;42.496;25.620;2022-10-26T05:18:22;1.63;;;1.23;;
17024;SDS011;8629;42.496;25.620;2022-10-26T05:20:51;0.80;;;0.80;;
17024;SDS011;8629;42.496;25.620;2022-10-26T05:23:18;1.23;;;1.13;;
17024;SDS011;8629;42.496;25.620;2022-10-26T05:25:45;2.93;;;1.10;;
17024;SDS011;8629;42.496;25.620;2022-10-26T05:28:14;1.73;;;1.13;;
17024;SDS011;8629;42.496;25.620;2022-10-26T05:30:42;4.80;;;1.40;;
17024;SDS011;8629;42.496;25.620;2022-10-26T05:33:10;1.07;;;1.00;;
17024;SDS011;8629;42.496;25.620;2022-10-26T05:35:38;0.90;;;0.90;;
17024;SDS011;8629;42.496;25.620;2022-10-26T05:38:07;3.33;;;1.87;;
17024;SDS011;8629;42.496;25.620;2022-10-26T05:40:35;1.77;;;1.07;;
17024;SDS011;8629;42.496;25.620;2022-10-26T05:43:02;1.37;;;1.27;;
17024;SDS011;8629;42.496;25.620;2022-10-26T05:45:30;2.27;;;1.67;;
17024;SDS011;8629;42.496;25.620;2022-10-26T05:47:57;1.27;;;1.17;;
17024;SDS011;8629;42.496;25.620;2022-10-26T05:50:24;4.83;;;1.77;;
17024;SDS011;8629;42.496;25.620;2022-10-26T05:52:50;3.97;;;1.10;;
17024;SDS011;8629;42.496;25.620;2022-10-26T05:55:18;1.30;;;1.20;;
17024;SDS011;8629;42.496;25.620;2022-10-26T05:57:45;1.27;;;1.27;;
17024;SDS011;8629;42.496;25.620;2022-10-26T06:00:14;2.67;;;1.33;;
17024;SDS011;8629;42.496;25.620;2022-10-26T06:02:46;3.07;;;2.10;;
17024;SDS011;8629;42.496;25.620;2022-10-26T06:05:21;1.50;;;1.40;;
17024;SDS011;8629;42.496;25.620;2022-10-26T06:07:49;3.50;;;1.27;;
17024;SDS011;8629;42.496;25.620;2022-10-26T06:10:16;1.33;;;1.20;;
17024;SDS011;8629;42.496;25.620;2022-10-26T06:12:44;1.30;;;1.20;;
17024;SDS011;8629;42.496;25.620;2022-10-26T06:15:12;1.20;;;1.13;;
17024;SDS011;8629;42.496;25.620;2022-10-26T06:17:45;0.93;;;0.93;;
17024;SDS011;8629;42.496;25.620;2022-10-26T06:20:29;1.00;;;1.00;;
17024;SDS011;8629;42.496;25.620;2022-10-26T06:23:08;1.47;;;1.20;;
17024;SDS011;8629;42.496;25.620;2022-10-26T06:25:45;2.00;;;1.13;;
17024;SDS011;8629;42.496;25.620;2022-10-26T06:28:18;2.40;;;1.17;;
17024;SDS011;8629;42.496;25.620;2022-10-26T06:30:50;3.10;;;1.43;;
17024;SDS011;8629;42.496;25.620;2022-10-26T06:33:18;1.70;;;1.20;;
17024;SDS011;8629;42.496;25.620;2022-10-26T06:35:46;1.00;;;1.00;;
17024;SDS011;8629;42.496;25.620;2022-10-26T06:38:20;1.10;;;1.10;;
17024;SDS011;8629;42.496;25.620;2022-10-26T06:40:48;2.53;;;1.13;;
17024;SDS011;8629;42.496;25.620;2022-10-26T06:43:19;1.70;;;1.00;;
17024;SDS011;8629;42.496;25.620;2022-10-26T06:45:50;1.87;;;1.20;;
17024;SDS011;8629;42.496;25.620;2022-10-26T06:48:21;4.33;;;1.50;;
17024;SDS011;8629;42.496;25.620;2022-10-26T06:50:52;1.27;;;1.17;;
17024;SDS011;8629;42.496;25.620;2022-10-26T06:53:20;3.40;;;1.37;;
17024;SDS011;8629;42.496;25.620;2022-10-26T06:55:51;6.20;;;1.20;;
17024;SDS011;8629;42.496;25.620;2022-10-26T06:58:18;3.27;;;1.30;;
17024;SDS011;8629;42.496;25.620;2022-10-26T07:00:47;1.63;;;1.10;;
17024;SDS011;8629;42.496;25.620;2022-10-26T07:03:14;1.63;;;1.50;;
17024;SDS011;8629;42.496;25.620;2022-10-26T07:05:42;3.93;;;1.57;;
17024;SDS011;8629;42.496;25.620;2022-10-26T07:08:09;5.50;;;1.50;;
17024;SDS011;8629;42.496;25.620;2022-10-26T07:10:36;1.03;;;1.03;;
17024;SDS011;8629;42.496;25.620;2022-10-26T07:13:04;1.90;;;1.43;;
17024;SDS011;8629;42.496;25.620;2022-10-26T07:15:31;2.23;;;1.30;;
17024;SDS011;8629;42.496;25.620;2022-10-26T07:17:57;1.80;;;1.17;;
17024;SDS011;8629;42.496;25.620;2022-10-26T07:20:24;1.30;;;1.20;;
17024;SDS011;8629;42.496;25.620;2022-10-26T07:22:52;2.80;;;1.40;;
17024;SDS011;8629;42.496;25.620;2022-10-26T07:25:20;1.20;;;1.00;;
17024;SDS011;8629;42.496;25.620;2022-10-26T07:27:47;1.93;;;1.17;;
17024;SDS011;8629;42.496;25.620;2022-10-26T07:30:14;2.30;;;0.97;;
17024;SDS011;8629;42.496;25.620;2022-10-26T07:32:41;1.83;;;1.30;;
17024;SDS011;8629;42.496;25.620;2022-10-26T07:35:08;1.20;;;1.10;;
17024;SDS011;8629;42.496;25.620;2022-10-26T07:37:34;1.77;;;1.50;;
17024;SDS011;8629;42.496;25.620;2022-10-26T07:40:03;1.17;;;1.07;;
17024;SDS011;8629;42.496;25.620;2022-10-26T07:42:30;3.83;;;1.40;;
17024;SDS011;8629;42.496;25.620;2022-10-26T07:44:57;1.10;;;1.10;;
17024;SDS011;8629;42.496;25.620;2022-10-26T07:47:24;2.50;;;1.20;;
17024;SDS011;8629;42.496;25.620;2022-10-26T07:49:51;1.83;;;1.73;;
17024;SDS011;8629;42.496;25.620;2022-10-26T07:52:17;2.80;;;1.10;;
17024;SDS011;8629;42.496;25.620;2022-10-26T07:54:44;1.43;;;1.10;;
17024;SDS011;8629;42.496;25.620;2022-10-26T07:57:12;1.47;;;1.10;;
17024;SDS011;8629;42.496;25.620;2022-10-26T07:59:41;1.00;;;1.00;;
17024;SDS011;8629;42.496;25.620;2022-10-26T08:02:08;0.80;;;0.80;;
17024;SDS011;8629;42.496;25.620;2022-10-26T08:04:35;1.50;;;1.40;;
17024;SDS011;8629;42.496;25.620;2022-10-26T08:07:01;1.47;;;0.83;;
17024;SDS011;8629;42.496;25.620;2022-10-26T08:09:28;1.60;;;1.27;;
17024;SDS011;8629;42.496;25.620;2022-10-26T08:11:55;1.27;;;1.17;;
17024;SDS011;8629;42.496;25.620;2022-10-26T08:14:23;1.40;;;0.97;;
17024;SDS011;8629;42.496;25.620;2022-10-26T08:16:50;0.93;;;0.93;;
17024;SDS011;8629;42.496;25.620;2022-10-26T08:19:17;0.93;;;0.93;;
17024;SDS011;8629;42.496;25.620;2022-10-26T08:21:43;1.20;;;1.10;;
17024;SDS011;8629;42.496;25.620;2022-10-26T08:24:10;1.37;;;1.20;;
17024;SDS011;8629;42.496;25.620;2022-10-26T08:26:37;2.93;;;1.00;;
17024;SDS011;8629;42.496;25.620;2022-10-26T08:29:04;1.60;;;1.03;;
17024;SDS011;8629;42.496;25.620;2022-10-26T08:31:32;3.13;;;2.13;;
17024;SDS011;8629;42.496;25.620;2022-10-26T08:33:59;5.13;;;1.80;;
17024;SDS011;8629;42.496;25.620;2022-10-26T08:36:26;2.10;;;1.90;;
17024;SDS011;8629;42.496;25.620;2022-10-26T08:38:53;8.23;;;2.80;;
17024;SDS011;8629;42.496;25.620;2022-10-26T08:41:21;2.53;;;2.10;;
17024;SDS011;8629;42.496;25.620;2022-10-26T08:43:51;4.00;;;2.47;;
17024;SDS011;8629;42.496;25.620;2022-10-26T08:46:20;2.90;;;2.00;;
17024;SDS011;8629;42.496;25.620;2022-10-26T08:48:51;3.83;;;1.80;;
17024;SDS011;8629;42.496;25.620;2022-10-26T08:51:21;2.80;;;2.27;;
17024;SDS011;8629;42.496;25.620;2022-10-26T08:53:51;2.33;;;1.90;;
17024;SDS011;8629;42.496;25.620;2022-10-26T08:56:20;3.37;;;2.43;;
17024;SDS011;8629;42.496;25.620;2022-10-26T08:58:50;3.47;;;2.00;;
17024;SDS011;8629;42.496;25.620;2022-10-26T09:01:20;1.73;;;1.60;;
17024;SDS011;8629;42.496;25.620;2022-10-26T09:03:46;2.27;;;2.07;;
17024;SDS011;8629;42.496;25.620;2022-10-26T09:06:17;2.10;;;1.57;;
17024;SDS011;8629;42.496;25.620;2022-10-26T09:08:51;4.17;;;2.57;;
17024;SDS011;8629;42.496;25.620;2022-10-26T09:11:28;3.23;;;2.27;;
17024;SDS011;8629;42.496;25.620;2022-10-26T09:14:03;4.90;;;2.50;;
17024;SDS011;8629;42.496;25.620;2022-10-26T09:16:36;2.40;;;2.20;;
17024;SDS011;8629;42.496;25.620;2022-10-26T09:19:22;3.53;;;2.53;;
17024;SDS011;8629;42.496;25.620;2022-10-26T09:22:06;2.00;;;1.90;;
17024;SDS011;8629;42.496;25.620;2022-10-26T09:24:35;6.33;;;2.67;;
17024;SDS011;8629;42.496;25.620;2022-10-26T09:27:06;3.93;;;2.53;;
17024;SDS011;8629;42.496;25.620;2022-10-26T09:29:40;2.70;;;2.33;;
17024;SDS011;8629;42.496;25.620;2022-10-26T09:32:08;5.97;;;2.03;;
17024;SDS011;8629;42.496;25.620;2022-10-26T09:34:45;2.47;;;1.87;;
17024;SDS011;8629;42.496;25.620;2022-10-26T09:37:16;2.97;;;2.30;;
17024;SDS011;8629;42.496;25.620;2022-10-26T09:39:47;3.93;;;2.37;;
17024;SDS011;8629;42.496;25.620;2022-10-26T09:42:19;5.93;;;2.80;;
17024;SDS011;8629;42.496;25.620;2022-10-26T09:44:49;5.00;;;1.90;;
17024;SDS011;8629;42.496;25.620;2022-10-26T09:47:26;2.00;;;1.80;;
17024;SDS011;8629;42.496;25.620;2022-10-26T09:49:57;3.60;;;2.57;;
17024;SDS011;8629;42.496;25.620;2022-10-26T09:52:32;3.10;;;1.70;;
17024;SDS011;8629;42.496;25.620;2022-10-26T09:54:58;5.20;;;1.83;;
17024;SDS011;8629;42.496;25.620;2022-10-26T09:57:25;2.80;;;2.13;;
17024;SDS011;8629;42.496;25.620;2022-10-26T09:59:52;3.57;;;2.00;;
17024;SDS011;8629;42.496;25.620;2022-10-26T10:02:33;6.00;;;3.00;;
17024;SDS011;8629;42.496;25.620;2022-10-26T10:05:00;4.20;;;2.53;;
17024;SDS011;8629;42.496;25.620;2022-10-26T10:07:28;4.83;;;3.03;;
17024;SDS011;8629;42.496;25.620;2022-10-26T10:10:13;5.10;;;3.50;;
17024;SDS011;8629;42.496;25.620;2022-10-26T10:12:44;7.07;;;2.77;;
17024;SDS011;8629;42.496;25.620;2022-10-26T10:15:15;3.80;;;2.90;;
17024;SDS011;8629;42.496;25.620;2022-10-26T10:17:45;4.30;;;2.73;;
17024;SDS011;8629;42.496;25.620;2022-10-26T10:20:16;3.37;;;2.33;;
17024;SDS011;8629;42.496;25.620;2022-10-26T10:22:55;4.03;;;2.33;;
17024;SDS011;8629;42.496;25.620;2022-10-26T10:25:30;6.80;;;2.27;;
17024;SDS011;8629;42.496;25.620;2022-10-26T10:27:59;3.60;;;2.43;;
17024;SDS011;8629;42.496;25.620;2022-10-26T10:30:27;2.67;;;2.47;;
17024;SDS011;8629;42.496;25.620;2022-10-26T10:33:05;3.43;;;1.93;;
17024;SDS011;8629;42.496;25.620;2022-10-26T10:35:33;4.57;;;3.43;;
17024;SDS011;8629;42.496;25.620;2022-10-26T10:38:00;8.33;;;3.63;;
17024;SDS011;8629;42.496;25.620;2022-10-26T10:40:28;7.13;;;3.40;;
17024;SDS011;8629;42.496;25.620;2022-10-26T10:43:02;4.77;;;4.03;;
17024;SDS011;8629;42.496;25.620;2022-10-26T10:45:30;3.80;;;3.30;;
17024;SDS011;8629;42.496;25.620;2022-10-26T10:47:58;3.77;;;3.47;;
17024;SDS011;8629;42.496;25.620;2022-10-26T10:50:27;4.37;;;3.83;;
17024;SDS011;8629;42.496;25.620;2022-10-26T10:53:11;4.97;;;4.13;;
17024;SDS011;8629;42.496;25.620;2022-10-26T10:55:40;6.07;;;3.73;;
17024;SDS011;8629;42.496;25.620;2022-10-26T10:58:12;4.47;;;3.80;;
17024;SDS011;8629;42.496;25.620;2022-10-26T11:00:43;8.27;;;4.10;;
17024;SDS011;8629;42.496;25.620;2022-10-26T11:03:14;7.80;;;5.03;;
17024;SDS011;8629;42.496;25.620;2022-10-26T11:06:10;5.30;;;4.80;;
17024;SDS011;8629;42.496;25.620;2022-10-26T11:08:41;6.17;;;5.10;;
17024;SDS011;8629;42.496;25.620;2022-10-26T11:11:15;5.70;;;3.87;;
17024;SDS011;8629;42.496;25.620;2022-10-26T11:13:46;6.27;;;4.23;;
17024;SDS011;8629;42.496;25.620;2022-10-26T11:16:18;4.20;;;3.80;;
17024;SDS011;8629;42.496;25.620;2022-10-26T11:18:48;4.87;;;4.00;;
17024;SDS011;8629;42.496;25.620;2022-10-26T11:21:19;5.60;;;3.43;;
17024;SDS011;8629;42.496;25.620;2022-10-26T11:23:49;11.07;;;3.80;;
17024;SDS011;8629;42.496;25.620;2022-10-26T11:26:23;10.03;;;4.50;;
17024;SDS011;8629;42.496;25.620;2022-10-26T11:28:53;4.23;;;3.23;;
17024;SDS011;8629;42.496;25.620;2022-10-26T11:31:24;5.77;;;3.50;;
17024;SDS011;8629;42.496;25.620;2022-10-26T11:34:02;3.63;;;3.20;;
17024;SDS011;8629;42.496;25.620;2022-10-26T11:36:37;4.03;;;2.80;;
17024;SDS011;8629;42.496;25.620;2022-10-26T11:39:10;3.63;;;2.83;;
17024;SDS011;8629;42.496;25.620;2022-10-26T11:41:42;4.13;;;2.80;;
17024;SDS011;8629;42.496;25.620;2022-10-26T11:44:12;3.20;;;2.40;;
17024;SDS011;8629;42.496;25.620;2022-10-26T11:46:45;3.93;;;3.23;;
17024;SDS011;8629;42.496;25.620;2022-10-26T11:49:16;3.83;;;3.23;;
17024;SDS011;8629;42.496;25.620;2022-10-26T11:51:48;17.57;;;4.57;;
17024;SDS011;8629;42.496;25.620;2022-10-26T11:54:18;3.77;;;2.13;;
17024;SDS011;8629;42.496;25.620;2022-10-26T11:56:49;4.93;;;2.90;;
17024;SDS011;8629;42.496;25.620;2022-10-26T11:59:18;7.17;;;2.90;;
17024;SDS011;8629;42.496;25.620;2022-10-26T12:01:46;2.43;;;2.20;;
17024;SDS011;8629;42.496;25.620;2022-10-26T12:04:13;2.30;;;2.10;;
17024;SDS011;8629;42.496;25.620;2022-10-26T12:06:42;2.90;;;1.90;;
17024;SDS011;8629;42.496;25.620;2022-10-26T12:09:11;2.97;;;1.77;;
17024;SDS011;8629;42.496;25.620;2022-10-26T12:11:42;6.07;;;2.20;;
17024;SDS011;8629;42.496;25.620;2022-10-26T12:14:15;2.20;;;2.00;;
17024;SDS011;8629;42.496;25.620;2022-10-26T12:16:51;2.83;;;1.77;;
17024;SDS011;8629;42.496;25.620;2022-10-26T12:19:24;2.50;;;1.47;;
17024;SDS011;8629;42.496;25.620;2022-10-26T12:21:53;2.53;;;1.67;;
17024;SDS011;8629;42.496;25.620;2022-10-26T12:24:24;3.73;;;1.50;;
17024;SDS011;8629;42.496;25.620;2022-10-26T12:26:53;4.10;;;1.43;;
17024;SDS011;8629;42.496;25.620;2022-10-26T12:38:26;2.60;;;1.70;;
17024;SDS011;8629;42.496;25.620;2022-10-26T12:41:23;2.80;;;1.70;;
17024;SDS011;8629;42.496;25.620;2022-10-26T12:43:53;2.10;;;1.90;;
17024;SDS011;8629;42.496;25.620;2022-10-26T12:52:20;2.83;;;1.97;;
17024;SDS011;8629;42.496;25.620;2022-10-26T12:58:00;1.60;;;1.50;;
17024;SDS011;8629;42.496;25.620;2022-10-26T13:00:36;2.63;;;2.10;;
17024;SDS011;8629;42.496;25.620;2022-10-26T13:03:11;1.40;;;1.30;;
17024;SDS011;8629;42.496;25.620;2022-10-26T13:08:50;1.33;;;1.23;;
17024;SDS011;8629;42.496;25.620;2022-10-26T13:11:20;1.33;;;1.23;;
17024;SDS011;8629;42.496;25.620;2022-10-26T13:13:52;1.37;;;1.27;;
17024;SDS011;8629;42.496;25.620;2022-10-26T13:16:22;2.80;;;1.93;;
17024;SDS011;8629;42.496;25.620;2022-10-26T13:18:51;2.67;;;1.70;;
17024;SDS011;8629;42.496;25.620;2022-10-26T13:21:18;1.63;;;1.53;;
17024;SDS011;8629;42.496;25.620;2022-10-26T13:23:46;2.43;;;1.17;;
17024;SDS011;8629;42.496;25.620;2022-10-26T13:26:21;1.83;;;1.30;;
17024;SDS011;8629;42.496;25.620;2022-10-26T13:28:49;2.10;;;1.30;;
17024;SDS011;8629;42.496;25.620;2022-10-26T13:34:19;4.07;;;1.10;;
17024;SDS011;8629;42.496;25.620;2022-10-26T13:36:49;1.30;;;1.20;;
17024;SDS011;8629;42.496;25.620;2022-10-26T13:39:18;1.80;;;1.63;;
17024;SDS011;8629;42.496;25.620;2022-10-26T13:41:46;1.53;;;1.43;;
17024;SDS011;8629;42.496;25.620;2022-10-26T13:44:18;1.87;;;1.30;;
17024;SDS011;8629;42.496;25.620;2022-10-26T13:46:50;1.30;;;1.20;;
17024;SDS011;8629;42.496;25.620;2022-10-26T13:49:22;1.57;;;1.00;;
17024;SDS011;8629;42.496;25.620;2022-10-26T13:51:54;1.90;;;1.80;;
17024;SDS011;8629;42.496;25.620;2022-10-26T13:54:24;1.60;;;1.50;;
17024;SDS011;8629;42.496;25.620;2022-10-26T13:57:09;1.87;;;1.10;;
17024;SDS011;8629;42.496;25.620;2022-10-26T13:59:40;2.30;;;1.40;;
17024;SDS011;8629;42.496;25.620;2022-10-26T14:02:21;3.97;;;1.63;;
17024;SDS011;8629;42.496;25.620;2022-10-26T14:04:52;1.40;;;1.30;;
17024;SDS011;8629;42.496;25.620;2022-10-26T14:07:20;3.30;;;1.40;;
17024;SDS011;8629;42.496;25.620;2022-10-26T14:09:49;1.70;;;1.57;;
17024;SDS011;8629;42.496;25.620;2022-10-26T14:12:17;2.13;;;1.40;;
17024;SDS011;8629;42.496;25.620;2022-10-26T14:14:44;1.60;;;1.50;;
17024;SDS011;8629;42.496;25.620;2022-10-26T14:17:13;1.57;;;1.47;;
17024;SDS011;8629;42.496;25.620;2022-10-26T14:19:44;1.50;;;1.40;;
17024;SDS011;8629;42.496;25.620;2022-10-26T14:22:16;1.63;;;1.53;;
17024;SDS011;8629;42.496;25.620;2022-10-26T14:24:49;1.40;;;1.30;;
17024;SDS011;8629;42.496;25.620;2022-10-26T14:27:17;2.80;;;2.50;;
17024;SDS011;8629;42.496;25.620;2022-10-26T14:29:44;1.57;;;1.47;;
17024;SDS011;8629;42.496;25.620;2022-10-26T14:32:21;2.67;;;1.70;;
17024;SDS011;8629;42.496;25.620;2022-10-26T14:34:51;3.27;;;2.07;;
17024;SDS011;8629;42.496;25.620;2022-10-26T14:37:23;1.77;;;1.67;;
17024;SDS011;8629;42.496;25.620;2022-10-26T14:39:54;4.53;;;2.00;;
17024;SDS011;8629;42.496;25.620;2022-10-26T14:42:23;2.80;;;2.47;;
17024;SDS011;8629;42.496;25.620;2022-10-26T14:44:52;2.57;;;2.37;;
17024;SDS011;8629;42.496;25.620;2022-10-26T14:47:20;5.00;;;3.07;;
17024;SDS011;8629;42.496;25.620;2022-10-26T14:49:49;5.40;;;2.73;;
17024;SDS011;8629;42.496;25.620;2022-10-26T14:52:18;10.63;;;8.77;;
17024;SDS011;8629;42.496;25.620;2022-10-26T14:54:56;11.50;;;10.23;;
17024;SDS011;8629;42.496;25.620;2022-10-26T14:57:28;5.80;;;4.63;;
17024;SDS011;8629;42.496;25.620;2022-10-26T14:59:59;5.33;;;4.03;;
17024;SDS011;8629;42.496;25.620;2022-10-26T15:02:27;2.80;;;2.40;;
17024;SDS011;8629;42.496;25.620;2022-10-26T15:04:58;2.90;;;2.70;;
17024;SDS011;8629;42.496;25.620;2022-10-26T15:07:33;3.23;;;3.03;;
17024;SDS011;8629;42.496;25.620;2022-10-26T15:10:01;5.63;;;5.13;;
17024;SDS011;8629;42.496;25.620;2022-10-26T15:12:30;24.27;;;22.33;;
17024;SDS011;8629;42.496;25.620;2022-10-26T15:14:59;14.40;;;13.00;;
17024;SDS011;8629;42.496;25.620;2022-10-26T15:17:38;9.00;;;8.23;;
17024;SDS011;8629;42.496;25.620;2022-10-26T15:20:06;5.80;;;5.30;;
17024;SDS011;8629;42.496;25.620;2022-10-26T15:22:39;2.23;;;2.13;;
17024;SDS011;8629;42.496;25.620;2022-10-26T15:25:13;1.27;;;1.27;;
17024;SDS011;8629;42.496;25.620;2022-10-26T15:27:44;0.77;;;0.77;;
17024;SDS011;8629;42.496;25.620;2022-10-26T15:30:16;0.70;;;0.70;;
17024;SDS011;8629;42.496;25.620;2022-10-26T15:32:45;0.80;;;0.80;;
17024;SDS011;8629;42.496;25.620;2022-10-26T15:35:13;0.60;;;0.60;;